createdAt,value
2023-05-19T00:01:55.045Z,7.85
2023-05-19T00:04:22.565Z,6.10
2023-05-19T00:06:51.075Z,6.30
2023-05-19T00:09:18.228Z,7.97
2023-05-19T00:11:45.651Z,6.22
2023-05-19T00:14:12.874Z,6.63
2023-05-19T00:16:39.991Z,8.98
2023-05-19T00:19:10.157Z,6.00
2023-05-19T00:21:40.580Z,6.95
2023-05-19T00:24:07.729Z,5.97
2023-05-19T00:26:34.600Z,5.15
2023-05-19T00:29:01.664Z,6.10
2023-05-19T00:31:28.534Z,6.53
2023-05-19T00:33:55.661Z,7.18
2023-05-19T00:36:22.458Z,6.85
2023-05-19T00:38:51.119Z,5.05
2023-05-19T00:41:17.856Z,5.75
2023-05-19T00:43:45.005Z,5.68
2023-05-19T00:46:11.885Z,4.93
2023-05-19T00:48:38.966Z,6.28
2023-05-19T00:51:06.666Z,6.28
2023-05-19T00:53:34.002Z,5.53
2023-05-19T00:56:01.010Z,5.97
2023-05-19T00:58:30.377Z,7.03
2023-05-19T01:01:04.246Z,4.90
2023-05-19T01:03:32.807Z,3.90
2023-05-19T01:06:05.320Z,4.90
2023-05-19T01:08:33.121Z,5.40
2023-05-19T01:11:00.011Z,6.55
2023-05-19T01:13:27.430Z,5.78
2023-05-19T01:16:34.602Z,4.25
2023-05-19T01:19:04.515Z,8.18
2023-05-19T01:21:48.522Z,3.65
2023-05-19T01:24:50.977Z,5.10
2023-05-19T01:27:42.320Z,8.23
2023-05-19T01:30:15.550Z,4.38
2023-05-19T01:32:42.511Z,5.35
2023-05-19T01:35:09.938Z,4.90
2023-05-19T01:37:37.572Z,4.40
2023-05-19T01:40:06.528Z,4.75
2023-05-19T01:42:37.358Z,4.57
2023-05-19T01:45:06.658Z,4.85
2023-05-19T01:47:35.219Z,5.75
2023-05-19T01:50:02.292Z,6.63
2023-05-19T01:52:29.028Z,5.18
2023-05-19T01:54:56.150Z,4.68
2023-05-19T01:57:41.803Z,4.72
2023-05-19T02:00:33.541Z,4.35
2023-05-19T02:03:10.057Z,3.95
2023-05-19T02:05:47.298Z,4.97
2023-05-19T02:08:24.454Z,5.40
2023-05-19T02:10:52.698Z,4.65
2023-05-19T02:13:21.118Z,4.07
2023-05-19T02:15:48.205Z,4.25
2023-05-19T02:18:17.904Z,4.85
2023-05-19T02:20:45.011Z,4.40
2023-05-19T02:23:11.759Z,5.88
2023-05-19T02:25:38.868Z,4.57
2023-05-19T02:28:06.807Z,4.30
2023-05-19T02:30:34.178Z,5.00
2023-05-19T02:33:01.080Z,5.88
2023-05-19T02:35:28.236Z,6.32
2023-05-19T02:37:54.992Z,5.82
2023-05-19T02:40:22.307Z,5.47
2023-05-19T02:42:49.008Z,5.10
2023-05-19T02:45:16.344Z,5.20
2023-05-19T02:47:43.187Z,6.43
2023-05-19T02:50:10.369Z,4.85
2023-05-19T02:52:37.135Z,4.88
2023-05-19T02:55:04.537Z,3.72
2023-05-19T02:57:33.203Z,4.20
2023-05-19T03:00:00.764Z,4.43
2023-05-19T03:02:27.496Z,4.47
2023-05-19T03:04:55.203Z,6.18
2023-05-19T03:07:25.295Z,5.10
2023-05-19T03:09:53.041Z,5.72
2023-05-19T03:12:19.741Z,6.53
2023-05-19T03:14:47.608Z,7.20
2023-05-19T03:17:14.518Z,6.13
2023-05-19T03:19:41.679Z,5.07
2023-05-19T03:22:08.433Z,4.72
2023-05-19T03:24:36.299Z,5.18
2023-05-19T03:27:05.869Z,4.75
2023-05-19T03:29:32.988Z,5.00
2023-05-19T03:31:59.989Z,4.13
2023-05-19T03:34:27.161Z,4.60
2023-05-19T03:36:53.952Z,6.25
2023-05-19T03:39:21.017Z,6.43
2023-05-19T03:41:47.800Z,4.78
2023-05-19T03:44:14.835Z,7.53
2023-05-19T03:46:41.622Z,4.97
2023-05-19T03:49:08.688Z,5.18
2023-05-19T03:51:36.678Z,6.25
2023-05-19T03:54:04.554Z,4.00
2023-05-19T03:56:32.846Z,4.65
2023-05-19T03:59:00.291Z,4.82
2023-05-19T04:01:27.149Z,4.93
2023-05-19T04:03:54.206Z,6.00
2023-05-19T04:06:21.195Z,6.03
2023-05-19T04:08:48.291Z,4.28
2023-05-19T04:11:15.032Z,4.65
2023-05-19T04:13:42.233Z,4.43
2023-05-19T04:16:09.182Z,5.05
2023-05-19T04:18:36.285Z,3.72
2023-05-19T04:21:03.149Z,4.20
2023-05-19T04:23:30.171Z,4.53
2023-05-19T04:25:58.175Z,6.63
2023-05-19T04:28:25.291Z,5.20
2023-05-19T04:30:52.189Z,5.28
2023-05-19T04:33:20.171Z,4.95
2023-05-19T04:35:46.968Z,3.83
2023-05-19T04:38:18.545Z,5.68
2023-05-19T04:40:45.270Z,5.45
2023-05-19T04:43:12.349Z,6.30
2023-05-19T04:45:42.475Z,6.25
2023-05-19T04:48:09.617Z,5.43
2023-05-19T04:50:38.643Z,4.80
2023-05-19T04:53:05.727Z,5.65
2023-05-19T04:55:33.019Z,5.95
2023-05-19T04:58:00.174Z,5.28
2023-05-19T05:00:26.938Z,6.43
2023-05-19T05:02:54.019Z,5.30
2023-05-19T05:05:21.128Z,9.70
2023-05-19T05:07:48.176Z,8.07
2023-05-19T05:10:15.076Z,8.55
2023-05-19T05:12:42.434Z,4.80
2023-05-19T05:15:09.896Z,5.43
2023-05-19T05:17:37.846Z,4.88
2023-05-19T05:20:06.650Z,5.93
2023-05-19T05:22:34.125Z,6.68
2023-05-19T05:25:01.887Z,8.77
2023-05-19T05:27:28.892Z,7.13
2023-05-19T05:29:57.453Z,6.78
2023-05-19T05:32:26.366Z,8.75
2023-05-19T05:34:53.139Z,6.53
2023-05-19T05:37:20.163Z,7.43
2023-05-19T05:39:46.886Z,7.28
2023-05-19T05:42:13.911Z,5.25
2023-05-19T05:44:40.786Z,4.72
2023-05-19T05:47:08.507Z,6.30
2023-05-19T05:49:38.235Z,7.68
2023-05-19T05:52:06.828Z,6.13
2023-05-19T05:54:34.155Z,8.65
2023-05-19T05:57:02.566Z,6.00
2023-05-19T05:59:29.357Z,6.93
2023-05-19T06:01:56.448Z,7.35
2023-05-19T06:04:23.241Z,5.47
2023-05-19T06:06:52.654Z,6.10
2023-05-19T06:09:19.494Z,7.93
2023-05-19T06:11:46.558Z,6.60
2023-05-19T06:14:13.380Z,6.38
2023-05-19T06:16:40.490Z,6.20
2023-05-19T06:19:07.476Z,7.18
2023-05-19T06:21:34.609Z,7.50
2023-05-19T06:24:02.532Z,8.02
2023-05-19T06:26:29.611Z,6.07
2023-05-19T06:28:56.349Z,6.45
2023-05-19T06:31:23.393Z,6.93
2023-05-19T06:33:50.157Z,6.93
2023-05-19T06:36:17.214Z,6.70
2023-05-19T06:38:44.061Z,6.95
2023-05-19T06:41:11.082Z,8.18
2023-05-19T06:43:37.869Z,7.20
2023-05-19T06:46:05.053Z,6.28
2023-05-19T06:48:31.825Z,6.68
2023-05-19T06:50:58.872Z,6.10
2023-05-19T06:53:25.664Z,8.38
2023-05-19T06:55:59.514Z,6.90
2023-05-19T06:58:27.833Z,6.07
2023-05-19T07:00:54.943Z,4.82
2023-05-19T07:03:21.758Z,7.20
2023-05-19T07:05:48.978Z,6.10
2023-05-19T07:08:15.858Z,7.85
2023-05-19T07:10:42.910Z,7.88
2023-05-19T07:13:09.646Z,7.03
2023-05-19T07:15:36.716Z,8.45
2023-05-19T07:18:03.602Z,10.70
2023-05-19T07:20:30.852Z,9.63
2023-05-19T07:22:57.813Z,5.40
2023-05-19T07:25:26.377Z,8.75
2023-05-19T07:27:53.160Z,6.97
2023-05-19T07:30:20.241Z,6.03
2023-05-19T07:32:47.025Z,5.43
2023-05-19T07:35:14.138Z,6.25
2023-05-19T07:37:40.917Z,6.63
2023-05-19T07:40:08.511Z,7.35
2023-05-19T07:42:35.269Z,7.57
2023-05-19T07:45:03.528Z,7.05
2023-05-19T07:47:30.934Z,8.32
2023-05-19T07:49:58.092Z,6.88
2023-05-19T07:52:24.809Z,5.90
2023-05-19T07:54:51.822Z,8.02
2023-05-19T07:57:19.080Z,6.22
2023-05-19T07:59:46.360Z,5.50
2023-05-19T08:02:13.228Z,8.07
2023-05-19T08:04:40.756Z,8.48
2023-05-19T08:07:07.572Z,7.57
2023-05-19T08:09:34.688Z,5.93
2023-05-19T08:12:02.106Z,6.68
2023-05-19T08:14:29.316Z,6.97
2023-05-19T08:16:56.366Z,6.40
2023-05-19T08:19:23.522Z,6.82
2023-05-19T08:21:50.420Z,6.35
2023-05-19T08:24:17.478Z,6.60
2023-05-19T08:26:44.422Z,6.50
2023-05-19T08:29:11.497Z,6.45
2023-05-19T08:31:38.311Z,6.03
2023-05-19T08:34:05.433Z,5.65
2023-05-19T08:36:33.824Z,5.70
2023-05-19T08:39:00.929Z,6.15
2023-05-19T08:41:27.729Z,5.35
2023-05-19T08:43:55.100Z,5.65
2023-05-19T08:46:21.939Z,5.18
2023-05-19T08:48:49.134Z,5.80
2023-05-19T08:51:35.948Z,5.85
2023-05-19T08:54:25.611Z,5.05
2023-05-19T08:56:52.367Z,6.10
2023-05-19T08:59:19.425Z,5.60
2023-05-19T09:01:46.519Z,5.38
2023-05-19T09:04:13.990Z,5.93
2023-05-19T09:06:45.419Z,5.10
2023-05-19T09:09:12.624Z,5.35
2023-05-19T09:11:39.410Z,6.72
2023-05-19T09:14:06.614Z,6.38
2023-05-19T09:16:34.070Z,6.70
2023-05-19T09:19:01.549Z,5.38
2023-05-19T09:21:31.537Z,5.35
2023-05-19T09:24:03.591Z,5.70
2023-05-19T09:26:38.336Z,6.20
2023-05-19T09:29:17.935Z,8.43
2023-05-19T09:31:51.750Z,7.13
2023-05-19T09:34:19.221Z,7.10
2023-05-19T09:36:49.367Z,6.30
2023-05-19T09:39:16.686Z,6.00
2023-05-19T09:41:43.762Z,5.88
2023-05-19T09:44:23.627Z,7.60
2023-05-19T09:46:52.859Z,6.30
2023-05-19T09:49:24.570Z,6.32
2023-05-19T09:51:56.767Z,6.40
2023-05-19T09:54:24.380Z,7.15
2023-05-19T09:57:01.207Z,8.18
2023-05-19T09:59:32.138Z,6.70
2023-05-19T10:02:00.792Z,8.50
2023-05-19T10:04:29.370Z,7.25
2023-05-19T10:06:59.569Z,8.40
2023-05-19T10:09:30.850Z,9.02
2023-05-19T10:11:58.251Z,8.07
2023-05-19T10:14:26.456Z,6.75
2023-05-19T10:16:54.454Z,7.28
2023-05-19T10:19:25.491Z,8.90
2023-05-19T10:21:52.606Z,7.93
2023-05-19T10:24:19.969Z,7.80
2023-05-19T10:26:55.181Z,8.60
2023-05-19T10:29:25.605Z,8.73
2023-05-19T10:31:52.420Z,7.22
2023-05-19T10:34:19.563Z,9.23
2023-05-19T10:36:47.899Z,8.40
2023-05-19T10:39:26.446Z,9.35
2023-05-19T10:41:59.289Z,8.43
2023-05-19T10:44:45.468Z,8.40
2023-05-19T10:47:12.668Z,9.63
2023-05-19T10:49:40.021Z,11.50
2023-05-19T10:52:20.185Z,8.30
2023-05-19T10:54:47.364Z,9.35
2023-05-19T10:57:17.558Z,8.15
2023-05-19T10:59:44.770Z,8.23
2023-05-19T11:02:31.957Z,8.07
2023-05-19T11:05:08.227Z,7.20
2023-05-19T11:07:35.054Z,7.10
2023-05-19T11:10:05.777Z,7.20
2023-05-19T11:12:40.755Z,7.75
2023-05-19T11:17:35.304Z,7.63
2023-05-19T11:20:02.445Z,7.15
2023-05-19T11:22:29.186Z,7.90
2023-05-19T11:24:56.516Z,8.85
2023-05-19T11:27:33.496Z,6.55
2023-05-19T11:30:06.251Z,7.05
2023-05-19T11:32:34.094Z,8.85
2023-05-19T11:35:01.860Z,6.93
2023-05-19T11:37:30.856Z,6.40
2023-05-19T11:39:58.187Z,8.60
2023-05-19T11:42:25.159Z,7.03
2023-05-19T11:44:55.203Z,7.47
2023-05-19T11:47:22.052Z,7.03
2023-05-19T11:49:49.340Z,7.55
2023-05-19T11:52:16.195Z,6.90
2023-05-19T11:54:43.319Z,7.72
2023-05-19T11:57:10.879Z,7.55
2023-05-19T11:59:39.204Z,7.78
2023-05-19T12:02:26.050Z,11.15
2023-05-19T12:04:53.787Z,7.90
2023-05-19T12:07:24.544Z,7.40
2023-05-19T12:09:52.888Z,8.35
2023-05-19T12:12:20.513Z,7.60
2023-05-19T12:14:48.700Z,10.27
2023-05-19T12:17:19.823Z,12.35
2023-05-19T12:19:47.845Z,9.00
2023-05-19T12:22:17.765Z,8.15
2023-05-19T12:24:45.206Z,12.27
2023-05-19T12:27:17.124Z,10.20
2023-05-19T12:29:52.321Z,8.05
2023-05-19T12:32:19.773Z,9.90
2023-05-19T12:34:47.487Z,9.90
2023-05-19T12:37:14.302Z,9.13
2023-05-19T12:39:42.479Z,8.85
2023-05-19T12:42:09.876Z,10.35
2023-05-19T12:44:38.679Z,9.77
2023-05-19T12:47:07.166Z,10.88
2023-05-19T12:49:34.593Z,8.57
2023-05-19T12:52:05.205Z,9.05
2023-05-19T12:54:34.468Z,9.05
2023-05-19T12:57:01.221Z,9.23
2023-05-19T12:59:38.367Z,9.73
2023-05-19T13:02:06.302Z,11.93
2023-05-19T13:04:33.577Z,9.48
2023-05-19T13:07:00.468Z,9.48
2023-05-19T13:09:28.595Z,9.23
2023-05-19T13:11:56.037Z,8.82
2023-05-19T13:14:23.061Z,9.02
2023-05-19T13:16:49.979Z,10.10
2023-05-19T13:19:25.275Z,9.60
2023-05-19T13:21:52.871Z,9.40
2023-05-19T13:24:19.991Z,10.57
2023-05-19T13:26:48.124Z,10.52
2023-05-19T13:29:15.204Z,9.43
2023-05-19T13:31:42.102Z,11.63
2023-05-19T13:34:09.262Z,11.65
2023-05-19T13:36:36.601Z,9.73
2023-05-19T13:39:03.853Z,11.30
2023-05-19T13:41:30.645Z,10.90
2023-05-19T13:44:00.890Z,11.07
2023-05-19T13:46:40.827Z,8.68
2023-05-19T13:49:11.757Z,10.60
2023-05-19T13:51:42.178Z,11.25
2023-05-19T13:54:09.450Z,9.85
2023-05-19T13:56:36.567Z,10.82
2023-05-19T13:59:04.154Z,10.73
2023-05-19T14:01:31.143Z,11.77
2023-05-19T14:03:58.438Z,9.85
2023-05-19T14:06:25.396Z,9.85
2023-05-19T14:08:52.407Z,9.48
2023-05-19T14:11:22.628Z,9.27
2023-05-19T14:13:53.036Z,9.38
2023-05-19T14:16:23.109Z,9.55
2023-05-19T14:18:50.374Z,10.05
2023-05-19T14:21:17.156Z,11.25
2023-05-19T14:23:44.317Z,10.40
2023-05-19T14:26:11.094Z,9.52
2023-05-19T14:28:38.157Z,10.40
2023-05-19T14:31:06.015Z,10.07
2023-05-19T14:33:35.711Z,11.93
2023-05-19T14:36:02.776Z,13.25
2023-05-19T14:38:29.938Z,10.55
2023-05-19T14:40:56.924Z,10.23
2023-05-19T14:43:24.077Z,9.50
2023-05-19T14:45:50.994Z,9.63
2023-05-19T14:48:18.134Z,9.15
2023-05-19T14:50:45.029Z,9.25
2023-05-19T14:53:12.242Z,11.45
2023-05-19T14:55:39.076Z,11.77
2023-05-19T14:58:15.822Z,10.40
2023-05-19T15:00:53.109Z,12.45
2023-05-19T15:03:20.240Z,10.00
2023-05-19T15:05:47.182Z,10.50
2023-05-19T15:08:14.299Z,10.20
2023-05-19T15:10:41.056Z,9.90
2023-05-19T15:13:08.102Z,10.40
2023-05-19T15:15:34.853Z,8.88
2023-05-19T15:18:02.034Z,9.82
2023-05-19T15:20:29.625Z,8.88
2023-05-19T15:23:03.262Z,8.52
2023-05-19T15:25:30.108Z,10.75
2023-05-19T15:27:57.155Z,9.73
2023-05-19T15:30:23.992Z,8.98
2023-05-19T15:32:51.125Z,10.35
2023-05-19T15:35:17.898Z,9.18
2023-05-19T15:37:45.028Z,12.10
2023-05-19T15:40:12.156Z,9.02
2023-05-19T15:42:39.201Z,7.90
2023-05-19T15:45:08.045Z,9.10
2023-05-19T15:47:35.814Z,8.70
2023-05-19T15:50:02.750Z,8.68
2023-05-19T15:52:29.853Z,9.38
2023-05-19T15:54:59.115Z,8.27
2023-05-19T15:57:26.235Z,8.00
2023-05-19T15:59:52.977Z,9.30
2023-05-19T16:02:20.185Z,9.02
2023-05-19T16:04:47.067Z,8.70
2023-05-19T16:07:14.239Z,8.48
2023-05-19T16:09:41.013Z,9.50
2023-05-19T16:12:08.162Z,8.77
2023-05-19T16:14:36.885Z,8.50
2023-05-19T16:17:04.945Z,8.77
2023-05-19T16:19:31.846Z,8.35
2023-05-19T16:21:59.100Z,11.48
2023-05-19T16:24:25.909Z,12.13
2023-05-19T16:26:53.909Z,14.10
2023-05-19T16:29:20.857Z,12.27
2023-05-19T16:31:47.963Z,10.75
2023-05-19T16:34:14.789Z,10.45
2023-05-19T16:36:41.817Z,10.23
2023-05-19T16:39:08.583Z,10.38
2023-05-19T16:41:35.936Z,10.60
2023-05-19T16:44:02.762Z,12.60
2023-05-19T16:46:31.546Z,10.68
2023-05-19T16:48:58.488Z,10.18
2023-05-19T16:51:25.817Z,11.23
2023-05-19T16:53:52.560Z,15.18
2023-05-19T16:56:19.816Z,12.93
2023-05-19T16:58:46.568Z,16.17
2023-05-19T17:01:13.649Z,13.32
2023-05-19T17:03:40.596Z,12.57
2023-05-19T17:06:07.782Z,12.65
2023-05-19T17:08:34.572Z,12.13
2023-05-19T17:11:01.670Z,13.27
2023-05-19T17:13:29.712Z,13.25
2023-05-19T17:15:56.821Z,12.85
2023-05-19T17:18:23.582Z,15.63
2023-05-19T17:20:50.727Z,14.48
2023-05-19T17:23:17.485Z,14.88
2023-05-19T17:25:44.556Z,15.85
2023-05-19T17:28:11.362Z,13.82
2023-05-19T17:30:39.790Z,14.10
2023-05-19T17:33:06.686Z,16.02
2023-05-19T17:35:33.749Z,17.77
2023-05-19T17:38:00.768Z,16.02
2023-05-19T17:40:28.535Z,17.83
2023-05-19T17:42:55.360Z,15.32
2023-05-19T17:45:22.472Z,14.38
2023-05-19T17:47:49.356Z,15.13
2023-05-19T17:50:16.785Z,16.92
2023-05-19T17:52:43.789Z,15.05
2023-05-19T17:55:14.248Z,14.13
2023-05-19T17:57:41.172Z,15.10
2023-05-19T18:00:09.114Z,13.88
2023-05-19T18:02:36.282Z,15.32
2023-05-19T18:05:04.150Z,14.68
2023-05-19T18:07:31.462Z,15.65
2023-05-19T18:09:58.523Z,15.55
2023-05-19T18:12:25.395Z,16.33
2023-05-19T18:14:52.427Z,17.42
2023-05-19T18:17:19.919Z,16.90
2023-05-19T18:19:47.145Z,16.92
2023-05-19T18:22:14.931Z,15.85
2023-05-19T18:24:42.027Z,15.90
2023-05-19T18:27:08.842Z,16.67
2023-05-19T18:29:36.064Z,15.85
2023-05-19T18:32:03.060Z,15.50
2023-05-19T18:34:30.327Z,15.77
2023-05-19T18:36:57.194Z,15.85
2023-05-19T18:39:24.336Z,19.90
2023-05-19T18:41:51.158Z,17.50
2023-05-19T18:44:18.321Z,17.40
2023-05-19T18:46:45.214Z,17.35
2023-05-19T18:49:12.248Z,16.50
2023-05-19T18:51:39.065Z,17.00
2023-05-19T18:54:06.960Z,18.80
2023-05-19T18:56:33.860Z,19.10
2023-05-19T18:59:00.968Z,19.40
2023-05-19T19:01:27.861Z,21.08
2023-05-19T19:03:55.133Z,18.20
2023-05-19T19:06:23.326Z,19.60
2023-05-19T19:08:50.617Z,18.88
2023-05-19T19:11:17.417Z,21.63
2023-05-19T19:13:44.727Z,19.23
2023-05-19T19:16:11.543Z,21.27
2023-05-19T19:18:38.850Z,20.70
2023-05-19T19:21:06.033Z,18.92
2023-05-19T19:23:33.410Z,18.83
2023-05-19T19:26:00.499Z,21.65
2023-05-19T19:28:27.745Z,17.60
2023-05-19T19:30:54.585Z,18.33
2023-05-19T19:33:21.804Z,18.58
2023-05-19T19:35:48.625Z,19.58
2023-05-19T19:38:15.865Z,16.42
2023-05-19T19:40:42.745Z,19.83
2023-05-19T19:43:09.852Z,18.73
2023-05-19T19:45:39.195Z,22.67
2023-05-19T19:48:21.385Z,20.08
2023-05-19T19:50:52.880Z,17.48
2023-05-19T19:53:28.291Z,19.10
2023-05-19T19:56:01.938Z,17.02
2023-05-19T19:58:29.084Z,19.33
2023-05-19T20:01:08.037Z,17.90
2023-05-19T20:03:35.596Z,17.88
2023-05-19T20:06:02.489Z,18.85
2023-05-19T20:08:29.607Z,18.40
2023-05-19T20:10:56.401Z,17.10
2023-05-19T20:13:23.562Z,18.92
2023-05-19T20:15:50.571Z,18.75
2023-05-19T20:18:17.701Z,21.98
2023-05-19T20:20:44.494Z,17.42
2023-05-19T20:23:13.355Z,20.38
2023-05-19T20:25:57.828Z,19.30
2023-05-19T20:28:25.968Z,17.60
2023-05-19T20:30:52.757Z,19.45
2023-05-19T20:33:19.854Z,18.60
2023-05-19T20:35:46.665Z,18.10
2023-05-19T20:38:13.764Z,18.80
2023-05-19T20:40:40.777Z,18.33
2023-05-19T20:43:07.912Z,18.15
2023-05-19T20:45:34.941Z,17.80
2023-05-19T20:48:03.789Z,20.85
2023-05-19T20:50:30.820Z,17.63
2023-05-19T20:52:58.021Z,19.50
2023-05-19T20:55:24.764Z,17.38
2023-05-19T20:57:51.806Z,18.00
2023-05-19T21:00:48.742Z,20.52
2023-05-19T21:03:15.903Z,16.55
2023-05-19T21:05:42.738Z,17.38
2023-05-19T21:08:12.857Z,18.30
2023-05-19T21:10:39.745Z,18.75
2023-05-19T21:13:06.868Z,18.77
2023-05-19T21:15:33.749Z,18.65
2023-05-19T21:18:01.010Z,18.80
2023-05-19T21:20:29.222Z,19.27
2023-05-19T21:22:56.686Z,20.02
2023-05-19T21:25:23.651Z,18.05
2023-05-19T21:27:51.604Z,18.73
2023-05-19T21:30:18.440Z,20.38
2023-05-19T21:32:45.541Z,19.50
2023-05-19T21:35:12.356Z,19.90
2023-05-19T21:37:39.840Z,19.33
2023-05-19T21:40:08.096Z,18.30
2023-05-19T21:42:35.393Z,18.60
2023-05-19T21:45:02.357Z,20.02
2023-05-19T21:47:29.441Z,18.50
2023-05-19T21:49:56.220Z,21.63
2023-05-19T21:52:23.361Z,21.52
2023-05-19T21:54:52.023Z,20.73
2023-05-19T21:57:19.090Z,18.38
2023-05-19T21:59:46.059Z,17.65
2023-05-19T22:02:13.217Z,18.88
2023-05-19T22:04:41.851Z,19.83
2023-05-19T22:07:08.917Z,19.45
2023-05-19T22:09:35.965Z,18.73
2023-05-19T22:12:03.057Z,17.20
2023-05-19T22:14:29.840Z,19.00
2023-05-19T22:16:56.935Z,18.88
2023-05-19T22:19:23.810Z,18.80
2023-05-19T22:21:58.379Z,18.77
2023-05-19T22:24:29.206Z,16.65
2023-05-19T22:26:56.555Z,17.60
2023-05-19T22:29:23.357Z,21.30
2023-05-19T22:31:50.430Z,18.20
2023-05-19T22:34:17.377Z,19.23
2023-05-19T22:36:46.016Z,22.48
2023-05-19T22:39:12.808Z,19.17
2023-05-19T22:41:40.233Z,19.70
2023-05-19T22:44:07.048Z,21.48
2023-05-19T22:46:35.345Z,20.90
2023-05-19T22:49:02.150Z,17.77
2023-05-19T22:51:29.319Z,21.77
2023-05-19T22:53:56.129Z,20.08
2023-05-19T22:56:23.267Z,18.85
2023-05-19T22:58:50.073Z,19.73
2023-05-19T23:01:17.287Z,19.45
2023-05-19T23:03:44.530Z,19.67
2023-05-19T23:06:11.657Z,18.92
2023-05-19T23:08:38.504Z,20.73
2023-05-19T23:11:05.646Z,21.98
2023-05-19T23:13:32.441Z,20.98
2023-05-19T23:15:59.550Z,21.92
2023-05-19T23:18:26.291Z,20.35
2023-05-19T23:20:53.345Z,22.67
2023-05-19T23:23:20.159Z,20.88
2023-05-19T23:25:47.224Z,19.67
2023-05-19T23:28:14.020Z,21.48
2023-05-19T23:30:41.074Z,22.23
2023-05-19T23:33:07.921Z,24.05
2023-05-19T23:35:35.378Z,20.80
2023-05-19T23:38:02.364Z,24.75
2023-05-19T23:40:29.413Z,23.08
2023-05-19T23:42:56.234Z,24.40
2023-05-19T23:45:23.289Z,21.35
2023-05-19T23:47:50.065Z,27.65
2023-05-19T23:50:17.101Z,23.33
2023-05-19T23:52:44.278Z,22.98
2023-05-19T23:55:13.090Z,22.50
2023-05-19T23:57:39.864Z,21.98
